sensor_id;sensor_type;location;lat;lon;timestamp;temperature;humidity
62154;DHT22;48140;45.486;9.226;2023-05-20T00:37:12;14.70;99.90
62154;DHT22;48140;45.486;9.226;2023-05-20T01:04:08;14.70;99.90
62154;DHT22;48140;45.486;9.226;2023-05-20T01:06:34;14.70;99.90
62154;DHT22;48140;45.486;9.226;2023-05-20T01:09:02;14.70;99.90
62154;DHT22;48140;45.486;9.226;2023-05-20T01:11:39;14.70;99.90
62154;DHT22;48140;45.486;9.226;2023-05-20T01:14:09;14.60;99.90
62154;DHT22;48140;45.486;9.226;2023-05-20T01:16:37;14.60;99.90
62154;DHT22;48140;45.486;9.226;2023-05-20T01:19:08;14.60;99.90
62154;DHT22;48140;45.486;9.226;2023-05-20T01:21:37;14.70;99.90
62154;DHT22;48140;45.486;9.226;2023-05-20T01:24:03;14.70;99.90
62154;DHT22;48140;45.486;9.226;2023-05-20T01:26:30;14.60;99.90
62154;DHT22;48140;45.486;9.226;2023-05-20T01:28:55;14.70;99.90
62154;DHT22;48140;45.486;9.226;2023-05-20T01:31:31;14.70;99.90
62154;DHT22;48140;45.486;9.226;2023-05-20T01:33:58;14.70;99.90
62154;DHT22;48140;45.486;9.226;2023-05-20T01:36:25;14.70;99.90
62154;DHT22;48140;45.486;9.226;2023-05-20T01:38:52;14.70;99.90
62154;DHT22;48140;45.486;9.226;2023-05-20T01:41:19;14.60;99.90
62154;DHT22;48140;45.486;9.226;2023-05-20T01:43:45;14.60;99.90
62154;DHT22;48140;45.486;9.226;2023-05-20T01:46:11;14.60;99.90
62154;DHT22;48140;45.486;9.226;2023-05-20T01:48:36;14.60;99.90
62154;DHT22;48140;45.486;9.226;2023-05-20T01:51:02;14.60;99.90
62154;DHT22;48140;45.486;9.226;2023-05-20T01:53:28;14.60;99.90
62154;DHT22;48140;45.486;9.226;2023-05-20T01:55:55;14.60;99.90
62154;DHT22;48140;45.486;9.226;2023-05-20T01:58:21;14.60;99.90
62154;DHT22;48140;45.486;9.226;2023-05-20T02:00:46;14.60;99.90
62154;DHT22;48140;45.486;9.226;2023-05-20T02:03:12;14.60;99.90
62154;DHT22;48140;45.486;9.226;2023-05-20T02:05:37;14.60;99.90
62154;DHT22;48140;45.486;9.226;2023-05-20T02:08:05;14.70;99.90
62154;DHT22;48140;45.486;9.226;2023-05-20T02:10:30;14.60;99.90
62154;DHT22;48140;45.486;9.226;2023-05-20T02:12:56;14.60;99.90
62154;DHT22;48140;45.486;9.226;2023-05-20T02:15:21;14.60;99.90
62154;DHT22;48140;45.486;9.226;2023-05-20T02:17:47;14.50;99.90
62154;DHT22;48140;45.486;9.226;2023-05-20T02:20:13;14.50;99.90
62154;DHT22;48140;45.486;9.226;2023-05-20T02:22:39;14.50;99.90
62154;DHT22;48140;45.486;9.226;2023-05-20T02:25:05;14.50;99.90
62154;DHT22;48140;45.486;9.226;2023-05-20T02:27:34;14.60;99.90
62154;DHT22;48140;45.486;9.226;2023-05-20T02:29:59;14.60;99.90
62154;DHT22;48140;45.486;9.226;2023-05-20T02:32:25;14.50;99.90
62154;DHT22;48140;45.486;9.226;2023-05-20T02:34:53;14.50;99.90
62154;DHT22;48140;45.486;9.226;2023-05-20T02:37:19;14.50;99.90
62154;DHT22;48140;45.486;9.226;2023-05-20T02:39:45;14.50;99.90
62154;DHT22;48140;45.486;9.226;2023-05-20T02:42:11;14.50;99.90
62154;DHT22;48140;45.486;9.226;2023-05-20T02:44:36;14.50;99.90
62154;DHT22;48140;45.486;9.226;2023-05-20T02:47:02;14.50;99.90
62154;DHT22;48140;45.486;9.226;2023-05-20T02:49:28;14.50;99.90
62154;DHT22;48140;45.486;9.226;2023-05-20T02:51:54;14.50;99.90
62154;DHT22;48140;45.486;9.226;2023-05-20T02:54:20;14.40;99.90
62154;DHT22;48140;45.486;9.226;2023-05-20T02:56:45;14.50;99.90
62154;DHT22;48140;45.486;9.226;2023-05-20T02:59:11;14.40;99.90
62154;DHT22;48140;45.486;9.226;2023-05-20T03:01:37;14.30;99.90
62154;DHT22;48140;45.486;9.226;2023-05-20T03:04:05;14.40;99.90
62154;DHT22;48140;45.486;9.226;2023-05-20T03:06:30;14.40;99.90
62154;DHT22;48140;45.486;9.226;2023-05-20T03:08:56;14.50;99.90
62154;DHT22;48140;45.486;9.226;2023-05-20T03:11:22;14.40;99.90
62154;DHT22;48140;45.486;9.226;2023-05-20T03:13:48;14.40;99.90
62154;DHT22;48140;45.486;9.226;2023-05-20T03:16:14;14.40;99.90
62154;DHT22;48140;45.486;9.226;2023-05-20T03:18:40;14.30;99.90
62154;DHT22;48140;45.486;9.226;2023-05-20T03:21:07;14.30;99.90
62154;DHT22;48140;45.486;9.226;2023-05-20T03:23:33;14.40;99.90
62154;DHT22;48140;45.486;9.226;2023-05-20T03:25:59;14.30;99.90
62154;DHT22;48140;45.486;9.226;2023-05-20T03:28:24;14.40;99.90
62154;DHT22;48140;45.486;9.226;2023-05-20T03:30:50;14.30;99.90
62154;DHT22;48140;45.486;9.226;2023-05-20T03:33:16;14.40;99.90
62154;DHT22;48140;45.486;9.226;2023-05-20T03:35:41;14.30;99.90
62154;DHT22;48140;45.486;9.226;2023-05-20T03:38:07;14.30;99.90
62154;DHT22;48140;45.486;9.226;2023-05-20T03:40:32;14.40;99.90
62154;DHT22;48140;45.486;9.226;2023-05-20T03:42:58;14.30;99.90
62154;DHT22;48140;45.486;9.226;2023-05-20T03:45:24;14.40;99.90
62154;DHT22;48140;45.486;9.226;2023-05-20T03:47:49;14.30;99.90
62154;DHT22;48140;45.486;9.226;2023-05-20T03:50:15;14.30;99.90
62154;DHT22;48140;45.486;9.226;2023-05-20T03:52:41;14.20;99.90
62154;DHT22;48140;45.486;9.226;2023-05-20T03:55:06;14.20;99.90
62154;DHT22;48140;45.486;9.226;2023-05-20T03:57:33;14.20;99.90
62154;DHT22;48140;45.486;9.226;2023-05-20T03:59:58;14.10;99.90
62154;DHT22;48140;45.486;9.226;2023-05-20T04:02:26;14.10;99.90
62154;DHT22;48140;45.486;9.226;2023-05-20T04:04:52;14.10;99.90
62154;DHT22;48140;45.486;9.226;2023-05-20T04:07:18;14.10;99.90
62154;DHT22;48140;45.486;9.226;2023-05-20T04:09:43;14.10;99.90
62154;DHT22;48140;45.486;9.226;2023-05-20T04:12:09;14.10;99.90
62154;DHT22;48140;45.486;9.226;2023-05-20T04:14:35;14.20;99.90
62154;DHT22;48140;45.486;9.226;2023-05-20T04:17:04;14.20;99.90
62154;DHT22;48140;45.486;9.226;2023-05-20T04:19:30;14.20;99.90
62154;DHT22;48140;45.486;9.226;2023-05-20T04:21:56;14.10;99.90
62154;DHT22;48140;45.486;9.226;2023-05-20T04:24:24;14.20;99.90
62154;DHT22;48140;45.486;9.226;2023-05-20T04:26:50;14.20;99.90
62154;DHT22;48140;45.486;9.226;2023-05-20T04:29:17;14.20;99.90
62154;DHT22;48140;45.486;9.226;2023-05-20T04:31:44;14.20;99.90
62154;DHT22;48140;45.486;9.226;2023-05-20T04:34:10;14.20;99.90
62154;DHT22;48140;45.486;9.226;2023-05-20T04:36:36;14.20;99.90
62154;DHT22;48140;45.486;9.226;2023-05-20T04:39:03;14.30;99.90
62154;DHT22;48140;45.486;9.226;2023-05-20T04:41:29;14.30;99.90
62154;DHT22;48140;45.486;9.226;2023-05-20T04:43:55;14.30;99.90
62154;DHT22;48140;45.486;9.226;2023-05-20T04:46:25;14.30;99.90
62154;DHT22;48140;45.486;9.226;2023-05-20T04:48:51;14.30;99.90
62154;DHT22;48140;45.486;9.226;2023-05-20T04:51:17;14.30;99.90
62154;DHT22;48140;45.486;9.226;2023-05-20T04:53:42;14.30;99.90
62154;DHT22;48140;45.486;9.226;2023-05-20T04:56:09;14.30;99.90
62154;DHT22;48140;45.486;9.226;2023-05-20T04:58:35;14.30;99.90
62154;DHT22;48140;45.486;9.226;2023-05-20T05:01:01;14.40;99.90
62154;DHT22;48140;45.486;9.226;2023-05-20T05:03:27;14.40;99.90
62154;DHT22;48140;45.486;9.226;2023-05-20T05:05:56;14.40;99.90
62154;DHT22;48140;45.486;9.226;2023-05-20T05:08:22;14.40;99.90
62154;DHT22;48140;45.486;9.226;2023-05-20T05:10:47;14.60;99.90
62154;DHT22;48140;45.486;9.226;2023-05-20T05:13:13;14.50;99.90
62154;DHT22;48140;45.486;9.226;2023-05-20T05:15:39;14.50;99.90
62154;DHT22;48140;45.486;9.226;2023-05-20T05:18:04;14.50;99.90
62154;DHT22;48140;45.486;9.226;2023-05-20T05:20:30;14.60;99.90
62154;DHT22;48140;45.486;9.226;2023-05-20T05:22:55;14.50;99.90
62154;DHT22;48140;45.486;9.226;2023-05-20T05:25:21;14.60;99.90
62154;DHT22;48140;45.486;9.226;2023-05-20T05:27:47;14.70;99.90
62154;DHT22;48140;45.486;9.226;2023-05-20T05:30:14;14.70;99.90
62154;DHT22;48140;45.486;9.226;2023-05-20T05:32:40;14.70;99.90
62154;DHT22;48140;45.486;9.226;2023-05-20T05:35:06;14.70;99.90
62154;DHT22;48140;45.486;9.226;2023-05-20T05:37:31;14.60;99.90
62154;DHT22;48140;45.486;9.226;2023-05-20T05:39:57;14.70;99.90
62154;DHT22;48140;45.486;9.226;2023-05-20T05:42:22;14.70;99.90
62154;DHT22;48140;45.486;9.226;2023-05-20T05:44:48;14.70;99.90
62154;DHT22;48140;45.486;9.226;2023-05-20T05:47:14;14.60;99.90
62154;DHT22;48140;45.486;9.226;2023-05-20T05:49:40;14.70;99.90
62154;DHT22;48140;45.486;9.226;2023-05-20T05:52:05;14.60;99.90
62154;DHT22;48140;45.486;9.226;2023-05-20T05:54:31;14.70;99.90
62154;DHT22;48140;45.486;9.226;2023-05-20T05:56:56;14.70;99.90
62154;DHT22;48140;45.486;9.226;2023-05-20T05:59:22;14.70;99.90
62154;DHT22;48140;45.486;9.226;2023-05-20T06:01:48;14.70;99.90
62154;DHT22;48140;45.486;9.226;2023-05-20T06:04:13;14.70;99.90
62154;DHT22;48140;45.486;9.226;2023-05-20T06:06:40;14.90;99.90
62154;DHT22;48140;45.486;9.226;2023-05-20T06:09:06;14.80;99.90
62154;DHT22;48140;45.486;9.226;2023-05-20T06:11:31;14.90;99.90
62154;DHT22;48140;45.486;9.226;2023-05-20T06:13:57;15.00;99.90
62154;DHT22;48140;45.486;9.226;2023-05-20T06:16:23;15.10;99.90
62154;DHT22;48140;45.486;9.226;2023-05-20T06:18:50;15.00;99.90
62154;DHT22;48140;45.486;9.226;2023-05-20T06:21:17;15.20;99.90
62154;DHT22;48140;45.486;9.226;2023-05-20T06:23:43;15.10;99.90
62154;DHT22;48140;45.486;9.226;2023-05-20T06:26:09;15.20;99.90
62154;DHT22;48140;45.486;9.226;2023-05-20T06:28:35;15.30;99.90
62154;DHT22;48140;45.486;9.226;2023-05-20T06:31:00;15.30;99.90
62154;DHT22;48140;45.486;9.226;2023-05-20T06:33:26;15.30;99.90
62154;DHT22;48140;45.486;9.226;2023-05-20T06:35:54;15.50;99.90
62154;DHT22;48140;45.486;9.226;2023-05-20T06:38:20;15.50;99.90
62154;DHT22;48140;45.486;9.226;2023-05-20T06:40:46;15.60;99.90
62154;DHT22;48140;45.486;9.226;2023-05-20T06:43:13;15.60;99.90
62154;DHT22;48140;45.486;9.226;2023-05-20T06:45:39;15.60;99.90
62154;DHT22;48140;45.486;9.226;2023-05-20T06:48:06;15.70;99.90
62154;DHT22;48140;45.486;9.226;2023-05-20T06:50:32;15.80;99.90
62154;DHT22;48140;45.486;9.226;2023-05-20T06:52:57;15.80;99.90
62154;DHT22;48140;45.486;9.226;2023-05-20T06:55:23;15.80;99.90
62154;DHT22;48140;45.486;9.226;2023-05-20T06:57:49;15.90;99.90
62154;DHT22;48140;45.486;9.226;2023-05-20T07:00:17;15.80;99.90
62154;DHT22;48140;45.486;9.226;2023-05-20T07:02:42;15.70;99.90
62154;DHT22;48140;45.486;9.226;2023-05-20T07:05:09;15.60;99.90
62154;DHT22;48140;45.486;9.226;2023-05-20T07:07:34;15.50;99.90
62154;DHT22;48140;45.486;9.226;2023-05-20T07:10:01;15.50;99.90
62154;DHT22;48140;45.486;9.226;2023-05-20T07:12:26;15.50;99.90
62154;DHT22;48140;45.486;9.226;2023-05-20T07:14:52;15.50;99.90
62154;DHT22;48140;45.486;9.226;2023-05-20T07:17:19;15.50;99.90
62154;DHT22;48140;45.486;9.226;2023-05-20T07:19:45;15.50;99.90
62154;DHT22;48140;45.486;9.226;2023-05-20T07:22:11;15.50;99.90
62154;DHT22;48140;45.486;9.226;2023-05-20T07:24:37;15.50;99.90
62154;DHT22;48140;45.486;9.226;2023-05-20T07:27:02;15.50;99.90
62154;DHT22;48140;45.486;9.226;2023-05-20T07:29:28;15.50;99.90
62154;DHT22;48140;45.486;9.226;2023-05-20T07:31:54;15.50;99.90
62154;DHT22;48140;45.486;9.226;2023-05-20T07:34:19;15.50;99.90
62154;DHT22;48140;45.486;9.226;2023-05-20T07:36:46;15.50;99.90
62154;DHT22;48140;45.486;9.226;2023-05-20T07:39:13;15.50;99.90
62154;DHT22;48140;45.486;9.226;2023-05-20T07:41:39;15.50;99.90
62154;DHT22;48140;45.486;9.226;2023-05-20T07:44:05;15.50;99.90
62154;DHT22;48140;45.486;9.226;2023-05-20T07:46:33;15.50;99.90
62154;DHT22;48140;45.486;9.226;2023-05-20T07:48:59;15.60;99.90
62154;DHT22;48140;45.486;9.226;2023-05-20T07:51:24;15.60;99.90
62154;DHT22;48140;45.486;9.226;2023-05-20T07:53:50;15.70;99.90
62154;DHT22;48140;45.486;9.226;2023-05-20T07:56:16;15.70;99.90
62154;DHT22;48140;45.486;9.226;2023-05-20T07:58:41;15.70;99.90
62154;DHT22;48140;45.486;9.226;2023-05-20T08:01:08;15.60;99.90
62154;DHT22;48140;45.486;9.226;2023-05-20T08:03:34;15.70;99.90
62154;DHT22;48140;45.486;9.226;2023-05-20T08:06:01;15.70;99.90
62154;DHT22;48140;45.486;9.226;2023-05-20T08:08:27;15.70;99.90
62154;DHT22;48140;45.486;9.226;2023-05-20T08:10:54;15.70;99.90
62154;DHT22;48140;45.486;9.226;2023-05-20T08:13:20;15.70;99.90
62154;DHT22;48140;45.486;9.226;2023-05-20T08:15:46;15.80;99.90
62154;DHT22;48140;45.486;9.226;2023-05-20T08:18:13;15.70;99.90
62154;DHT22;48140;45.486;9.226;2023-05-20T08:20:39;15.70;99.90
62154;DHT22;48140;45.486;9.226;2023-05-20T08:23:04;15.70;99.90
62154;DHT22;48140;45.486;9.226;2023-05-20T08:25:30;15.70;99.90
62154;DHT22;48140;45.486;9.226;2023-05-20T08:27:56;15.70;99.90
62154;DHT22;48140;45.486;9.226;2023-05-20T08:30:22;15.60;99.90
62154;DHT22;48140;45.486;9.226;2023-05-20T08:32:47;15.60;99.90
62154;DHT22;48140;45.486;9.226;2023-05-20T08:35:13;15.60;99.90
62154;DHT22;48140;45.486;9.226;2023-05-20T08:37:39;15.60;99.90
62154;DHT22;48140;45.486;9.226;2023-05-20T08:40:04;15.70;99.90
62154;DHT22;48140;45.486;9.226;2023-05-20T08:42:30;15.80;99.90
62154;DHT22;48140;45.486;9.226;2023-05-20T08:44:57;15.80;99.90
62154;DHT22;48140;45.486;9.226;2023-05-20T08:47:23;15.90;99.90
62154;DHT22;48140;45.486;9.226;2023-05-20T08:49:51;15.90;99.90
62154;DHT22;48140;45.486;9.226;2023-05-20T08:52:21;15.80;99.90
62154;DHT22;48140;45.486;9.226;2023-05-20T08:54:48;15.90;99.90
62154;DHT22;48140;45.486;9.226;2023-05-20T08:57:14;15.90;99.90
62154;DHT22;48140;45.486;9.226;2023-05-20T08:59:44;16.00;99.90
62154;DHT22;48140;45.486;9.226;2023-05-20T09:02:12;15.90;99.90
62154;DHT22;48140;45.486;9.226;2023-05-20T09:04:38;16.00;99.90
62154;DHT22;48140;45.486;9.226;2023-05-20T09:14:48;16.00;99.90
62154;DHT22;48140;45.486;9.226;2023-05-20T10:24:37;16.50;99.90
62154;DHT22;48140;45.486;9.226;2023-05-20T10:27:08;16.50;99.90
62154;DHT22;48140;45.486;9.226;2023-05-20T10:32:07;16.50;99.90
62154;DHT22;48140;45.486;9.226;2023-05-20T10:34:47;16.50;99.90
62154;DHT22;48140;45.486;9.226;2023-05-20T10:37:43;16.40;99.90
62154;DHT22;48140;45.486;9.226;2023-05-20T10:42:46;16.50;99.90
62154;DHT22;48140;45.486;9.226;2023-05-20T10:47:57;16.60;99.90
62154;DHT22;48140;45.486;9.226;2023-05-20T10:50:28;16.70;99.90
62154;DHT22;48140;45.486;9.226;2023-05-20T10:52:56;16.70;99.90
62154;DHT22;48140;45.486;9.226;2023-05-20T10:55:37;16.80;99.90
62154;DHT22;48140;45.486;9.226;2023-05-20T10:58:04;16.90;99.90
62154;DHT22;48140;45.486;9.226;2023-05-20T11:08:17;16.90;99.90
62154;DHT22;48140;45.486;9.226;2023-05-20T11:10:42;16.90;99.90
62154;DHT22;48140;45.486;9.226;2023-05-20T11:13:11;16.90;99.90
62154;DHT22;48140;45.486;9.226;2023-05-20T11:15:38;17.00;99.90
62154;DHT22;48140;45.486;9.226;2023-05-20T11:18:04;17.10;99.90
62154;DHT22;48140;45.486;9.226;2023-05-20T11:20:30;17.10;99.90
62154;DHT22;48140;45.486;9.226;2023-05-20T11:22:59;17.10;99.90
62154;DHT22;48140;45.486;9.226;2023-05-20T11:25:26;17.00;99.90
62154;DHT22;48140;45.486;9.226;2023-05-20T11:27:52;16.90;99.90
62154;DHT22;48140;45.486;9.226;2023-05-20T11:30:18;17.00;99.90
62154;DHT22;48140;45.486;9.226;2023-05-20T11:35:24;17.00;99.90
62154;DHT22;48140;45.486;9.226;2023-05-20T11:38:16;17.00;99.90
62154;DHT22;48140;45.486;9.226;2023-05-20T11:40:45;17.00;99.90
62154;DHT22;48140;45.486;9.226;2023-05-20T11:43:12;17.00;99.90
62154;DHT22;48140;45.486;9.226;2023-05-20T11:45:39;17.00;99.90
62154;DHT22;48140;45.486;9.226;2023-05-20T11:48:06;17.00;99.90
62154;DHT22;48140;45.486;9.226;2023-05-20T11:50:39;16.80;99.90
62154;DHT22;48140;45.486;9.226;2023-05-20T11:53:07;16.80;99.90
62154;DHT22;48140;45.486;9.226;2023-05-20T11:55:34;16.80;99.90
62154;DHT22;48140;45.486;9.226;2023-05-20T11:58:08;16.90;99.90
62154;DHT22;48140;45.486;9.226;2023-05-20T12:00:34;16.90;99.90
62154;DHT22;48140;45.486;9.226;2023-05-20T12:02:59;16.80;99.90
62154;DHT22;48140;45.486;9.226;2023-05-20T12:05:25;16.80;99.90
62154;DHT22;48140;45.486;9.226;2023-05-20T12:07:51;16.70;99.90
62154;DHT22;48140;45.486;9.226;2023-05-20T12:10:16;16.70;99.90
62154;DHT22;48140;45.486;9.226;2023-05-20T12:12:43;16.70;99.90
62154;DHT22;48140;45.486;9.226;2023-05-20T12:15:10;16.60;99.90
62154;DHT22;48140;45.486;9.226;2023-05-20T12:17:50;16.70;99.90
62154;DHT22;48140;45.486;9.226;2023-05-20T12:20:17;16.60;99.90
62154;DHT22;48140;45.486;9.226;2023-05-20T12:22:44;16.60;99.90
62154;DHT22;48140;45.486;9.226;2023-05-20T12:25:14;16.60;99.90
62154;DHT22;48140;45.486;9.226;2023-05-20T12:35:39;16.90;99.90
62154;DHT22;48140;45.486;9.226;2023-05-20T13:09:09;17.00;99.90
62154;DHT22;48140;45.486;9.226;2023-05-20T13:11:35;16.90;99.90
62154;DHT22;48140;45.486;9.226;2023-05-20T13:14:00;16.80;99.90
62154;DHT22;48140;45.486;9.226;2023-05-20T13:19:01;16.70;99.90
62154;DHT22;48140;45.486;9.226;2023-05-20T13:21:27;16.60;99.90
62154;DHT22;48140;45.486;9.226;2023-05-20T13:23:52;16.60;99.90
62154;DHT22;48140;45.486;9.226;2023-05-20T13:28:53;16.60;99.90
62154;DHT22;48140;45.486;9.226;2023-05-20T13:31:19;16.60;99.90
62154;DHT22;48140;45.486;9.226;2023-05-20T13:33:45;16.60;99.90
62154;DHT22;48140;45.486;9.226;2023-05-20T13:36:11;16.50;99.90
62154;DHT22;48140;45.486;9.226;2023-05-20T13:38:37;16.40;99.90
62154;DHT22;48140;45.486;9.226;2023-05-20T13:41:02;16.50;99.90
62154;DHT22;48140;45.486;9.226;2023-05-20T13:43:29;16.50;99.90
62154;DHT22;48140;45.486;9.226;2023-05-20T13:45:55;16.50;99.90
62154;DHT22;48140;45.486;9.226;2023-05-20T13:48:20;16.40;99.90
62154;DHT22;48140;45.486;9.226;2023-05-20T13:50:46;16.40;99.90
62154;DHT22;48140;45.486;9.226;2023-05-20T13:53:12;16.40;99.90
62154;DHT22;48140;45.486;9.226;2023-05-20T13:55:39;16.40;99.90
62154;DHT22;48140;45.486;9.226;2023-05-20T13:58:05;16.30;99.90
62154;DHT22;48140;45.486;9.226;2023-05-20T14:00:37;16.40;99.90
62154;DHT22;48140;45.486;9.226;2023-05-20T14:03:04;16.50;99.90
62154;DHT22;48140;45.486;9.226;2023-05-20T14:05:33;16.40;99.90
62154;DHT22;48140;45.486;9.226;2023-05-20T14:07:59;16.40;99.90
62154;DHT22;48140;45.486;9.226;2023-05-20T14:10:25;16.40;99.90
62154;DHT22;48140;45.486;9.226;2023-05-20T14:12:51;16.50;99.90
62154;DHT22;48140;45.486;9.226;2023-05-20T14:15:17;16.40;99.90
62154;DHT22;48140;45.486;9.226;2023-05-20T14:17:43;16.30;99.90
62154;DHT22;48140;45.486;9.226;2023-05-20T14:20:09;16.40;99.90
62154;DHT22;48140;45.486;9.226;2023-05-20T14:22:35;16.30;99.90
62154;DHT22;48140;45.486;9.226;2023-05-20T14:25:00;16.30;99.90
62154;DHT22;48140;45.486;9.226;2023-05-20T14:27:26;16.30;99.90
62154;DHT22;48140;45.486;9.226;2023-05-20T14:29:52;16.20;99.90
62154;DHT22;48140;45.486;9.226;2023-05-20T14:32:17;16.20;99.90
62154;DHT22;48140;45.486;9.226;2023-05-20T14:34:43;16.20;99.90
62154;DHT22;48140;45.486;9.226;2023-05-20T14:37:08;16.20;99.90
62154;DHT22;48140;45.486;9.226;2023-05-20T14:39:36;16.20;99.90
62154;DHT22;48140;45.486;9.226;2023-05-20T14:42:02;16.20;99.90
62154;DHT22;48140;45.486;9.226;2023-05-20T14:44:28;16.30;99.90
62154;DHT22;48140;45.486;9.226;2023-05-20T14:46:54;16.20;99.90
62154;DHT22;48140;45.486;9.226;2023-05-20T14:49:20;16.30;99.90
62154;DHT22;48140;45.486;9.226;2023-05-20T14:51:46;16.40;99.90
62154;DHT22;48140;45.486;9.226;2023-05-20T14:54:11;16.40;99.90
62154;DHT22;48140;45.486;9.226;2023-05-20T14:56:39;16.40;99.90
62154;DHT22;48140;45.486;9.226;2023-05-20T14:59:06;16.30;99.90
62154;DHT22;48140;45.486;9.226;2023-05-20T15:01:32;16.40;99.90
62154;DHT22;48140;45.486;9.226;2023-05-20T15:03:58;16.50;99.90
62154;DHT22;48140;45.486;9.226;2023-05-20T15:06:24;16.40;99.90
62154;DHT22;48140;45.486;9.226;2023-05-20T15:08:50;16.40;99.90
62154;DHT22;48140;45.486;9.226;2023-05-20T15:11:16;16.40;99.90
62154;DHT22;48140;45.486;9.226;2023-05-20T15:13:41;16.30;99.90
62154;DHT22;48140;45.486;9.226;2023-05-20T15:16:08;16.40;99.90
62154;DHT22;48140;45.486;9.226;2023-05-20T15:18:34;16.30;99.90
62154;DHT22;48140;45.486;9.226;2023-05-20T15:21:00;16.30;99.90
62154;DHT22;48140;45.486;9.226;2023-05-20T15:23:25;16.30;99.90
62154;DHT22;48140;45.486;9.226;2023-05-20T15:25:53;16.30;99.90
62154;DHT22;48140;45.486;9.226;2023-05-20T15:28:20;16.30;99.90
62154;DHT22;48140;45.486;9.226;2023-05-20T15:30:49;16.40;99.90
62154;DHT22;48140;45.486;9.226;2023-05-20T15:33:15;16.30;99.90
62154;DHT22;48140;45.486;9.226;2023-05-20T15:35:41;16.30;99.90
62154;DHT22;48140;45.486;9.226;2023-05-20T15:38:06;16.30;99.90
62154;DHT22;48140;45.486;9.226;2023-05-20T15:40:32;16.40;99.90
62154;DHT22;48140;45.486;9.226;2023-05-20T15:42:58;16.30;99.90
62154;DHT22;48140;45.486;9.226;2023-05-20T15:45:24;16.30;99.90
62154;DHT22;48140;45.486;9.226;2023-05-20T15:47:50;16.40;99.90
62154;DHT22;48140;45.486;9.226;2023-05-20T15:50:16;16.40;99.90
62154;DHT22;48140;45.486;9.226;2023-05-20T15:52:42;16.40;99.90
62154;DHT22;48140;45.486;9.226;2023-05-20T15:55:08;16.40;99.90
62154;DHT22;48140;45.486;9.226;2023-05-20T15:57:34;16.50;99.90
62154;DHT22;48140;45.486;9.226;2023-05-20T16:00:00;16.50;99.90
62154;DHT22;48140;45.486;9.226;2023-05-20T16:02:26;16.50;99.90
62154;DHT22;48140;45.486;9.226;2023-05-20T16:04:51;16.50;99.90
62154;DHT22;48140;45.486;9.226;2023-05-20T16:07:17;16.50;99.90
62154;DHT22;48140;45.486;9.226;2023-05-20T16:09:43;16.50;99.90
62154;DHT22;48140;45.486;9.226;2023-05-20T16:12:08;16.60;99.90
62154;DHT22;48140;45.486;9.226;2023-05-20T16:14:36;16.60;99.90
62154;DHT22;48140;45.486;9.226;2023-05-20T16:17:02;16.60;99.90
62154;DHT22;48140;45.486;9.226;2023-05-20T16:19:27;16.60;99.90
62154;DHT22;48140;45.486;9.226;2023-05-20T16:21:53;16.50;99.90
62154;DHT22;48140;45.486;9.226;2023-05-20T16:24:18;16.50;99.90
62154;DHT22;48140;45.486;9.226;2023-05-20T16:26:44;16.50;99.90
62154;DHT22;48140;45.486;9.226;2023-05-20T16:29:10;16.50;99.90
62154;DHT22;48140;45.486;9.226;2023-05-20T16:31:35;16.50;99.90
62154;DHT22;48140;45.486;9.226;2023-05-20T16:34:02;16.50;99.90
62154;DHT22;48140;45.486;9.226;2023-05-20T16:36:28;16.50;99.90
62154;DHT22;48140;45.486;9.226;2023-05-20T16:38:53;16.50;99.90
62154;DHT22;48140;45.486;9.226;2023-05-20T16:41:19;16.50;99.90
62154;DHT22;48140;45.486;9.226;2023-05-20T16:43:45;16.40;99.90
62154;DHT22;48140;45.486;9.226;2023-05-20T16:46:11;16.40;99.90
62154;DHT22;48140;45.486;9.226;2023-05-20T16:48:38;16.40;99.90
62154;DHT22;48140;45.486;9.226;2023-05-20T16:51:04;16.40;99.90
62154;DHT22;48140;45.486;9.226;2023-05-20T16:53:30;16.40;99.90
62154;DHT22;48140;45.486;9.226;2023-05-20T16:55:56;16.50;99.90
62154;DHT22;48140;45.486;9.226;2023-05-20T16:58:21;16.40;99.90
62154;DHT22;48140;45.486;9.226;2023-05-20T17:00:47;16.50;99.90
62154;DHT22;48140;45.486;9.226;2023-05-20T17:03:13;16.50;99.90
62154;DHT22;48140;45.486;9.226;2023-05-20T17:05:39;16.50;99.90
62154;DHT22;48140;45.486;9.226;2023-05-20T17:08:04;16.50;99.90
62154;DHT22;48140;45.486;9.226;2023-05-20T17:10:30;16.50;99.90
62154;DHT22;48140;45.486;9.226;2023-05-20T17:12:55;16.40;99.90
62154;DHT22;48140;45.486;9.226;2023-05-20T17:15:21;16.40;99.90
62154;DHT22;48140;45.486;9.226;2023-05-20T17:17:47;16.50;99.90
62154;DHT22;48140;45.486;9.226;2023-05-20T17:20:13;16.50;99.90
62154;DHT22;48140;45.486;9.226;2023-05-20T17:22:38;16.40;99.90
62154;DHT22;48140;45.486;9.226;2023-05-20T17:25:04;16.40;99.90
62154;DHT22;48140;45.486;9.226;2023-05-20T17:27:30;16.40;99.90
62154;DHT22;48140;45.486;9.226;2023-05-20T17:29:57;16.40;99.90
62154;DHT22;48140;45.486;9.226;2023-05-20T17:32:23;16.30;99.90
62154;DHT22;48140;45.486;9.226;2023-05-20T17:34:49;16.40;99.90
62154;DHT22;48140;45.486;9.226;2023-05-20T17:37:14;16.40;99.90
62154;DHT22;48140;45.486;9.226;2023-05-20T17:39:42;16.40;99.90
62154;DHT22;48140;45.486;9.226;2023-05-20T17:42:08;16.30;99.90
62154;DHT22;48140;45.486;9.226;2023-05-20T17:44:34;16.20;99.90
62154;DHT22;48140;45.486;9.226;2023-05-20T17:46:59;16.20;99.90
62154;DHT22;48140;45.486;9.226;2023-05-20T17:49:25;16.10;99.90
62154;DHT22;48140;45.486;9.226;2023-05-20T17:51:51;16.20;99.90
62154;DHT22;48140;45.486;9.226;2023-05-20T17:54:16;16.20;99.90
62154;DHT22;48140;45.486;9.226;2023-05-20T17:56:42;16.20;99.90
62154;DHT22;48140;45.486;9.226;2023-05-20T17:59:09;16.20;99.90
62154;DHT22;48140;45.486;9.226;2023-05-20T18:01:35;16.20;99.90
62154;DHT22;48140;45.486;9.226;2023-05-20T18:04:02;16.20;99.90
62154;DHT22;48140;45.486;9.226;2023-05-20T18:06:30;16.20;99.90
62154;DHT22;48140;45.486;9.226;2023-05-20T18:09:00;16.10;99.90
62154;DHT22;48140;45.486;9.226;2023-05-20T18:11:26;16.20;99.90
62154;DHT22;48140;45.486;9.226;2023-05-20T18:13:52;16.10;99.90
62154;DHT22;48140;45.486;9.226;2023-05-20T18:16:18;16.10;99.90
62154;DHT22;48140;45.486;9.226;2023-05-20T18:18:43;16.10;99.90
62154;DHT22;48140;45.486;9.226;2023-05-20T18:21:09;16.20;99.90
62154;DHT22;48140;45.486;9.226;2023-05-20T18:23:35;16.10;99.90
62154;DHT22;48140;45.486;9.226;2023-05-20T18:26:01;16.10;99.90
62154;DHT22;48140;45.486;9.226;2023-05-20T18:28:31;16.10;99.90
62154;DHT22;48140;45.486;9.226;2023-05-20T18:30:57;16.10;99.90
62154;DHT22;48140;45.486;9.226;2023-05-20T18:33:22;16.10;99.90
62154;DHT22;48140;45.486;9.226;2023-05-20T18:35:49;16.10;99.90
62154;DHT22;48140;45.486;9.226;2023-05-20T18:38:16;16.20;99.90
62154;DHT22;48140;45.486;9.226;2023-05-20T18:40:42;16.10;99.90
62154;DHT22;48140;45.486;9.226;2023-05-20T18:43:07;16.10;99.90